Time;durP1;ratioP1;P1;durP2;ratioP2;P2;SDS_P1;SDS_P2;PMS_P1;PMS_P2;Temp;Humidity;BMP_temperature;BMP_pressure;BME280_temperature;BME280_humidity;BME280_pressure;Samples;Min_cycle;Max_cycle;Signal;HPM_P1;HPM_P2
2022/05/14 01:14:46;;;;;;;13.63;6.30;;;13.40;99.90;;;;;;1490440;26;20474;-84
2022/05/14 01:17:13;;;;;;;9.00;6.93;;;13.50;99.90;;;;;;5012485;28;20451;-84
2022/05/14 01:19:41;;;;;;;9.50;6.10;;;13.50;99.90;;;;;;5013116;28;20473;-85
2022/05/14 01:22:21;;;;;;;7.37;6.67;;;13.40;99.90;;;;;;5014369;28;20943;-85
2022/05/14 01:27:40;;;;;;;9.40;7.40;;;13.40;99.90;;;;;;5013558;28;20463;-85
2022/05/14 01:30:08;;;;;;;9.70;6.60;;;13.30;99.90;;;;;;5018719;28;20479;-85
2022/05/14 01:32:35;;;;;;;9.30;6.60;;;13.40;99.90;;;;;;5027577;28;20438;-84
2022/05/14 01:35:02;;;;;;;7.77;6.97;;;13.30;99.90;;;;;;5025096;28;20465;-84
2022/05/14 01:37:28;;;;;;;10.33;6.90;;;13.30;99.90;;;;;;5017276;28;20522;-85
2022/05/14 01:39:55;;;;;;;9.10;6.80;;;13.30;99.90;;;;;;5015359;28;20444;-85
2022/05/14 01:42:22;;;;;;;11.87;6.87;;;13.20;99.90;;;;;;5020212;28;20917;-84
2022/05/14 01:44:50;;;;;;;9.37;7.30;;;13.10;99.90;;;;;;5035691;28;20505;-84
2022/05/14 01:47:16;;;;;;;8.93;7.07;;;13.10;99.90;;;;;;5022690;28;20453;-84
2022/05/14 01:49:43;;;;;;;13.07;7.23;;;13.00;99.90;;;;;;5016266;28;20462;-84
2022/05/14 01:52:10;;;;;;;14.70;8.73;;;13.00;99.90;;;;;;5016044;28;20455;-85
2022/05/14 01:54:39;;;;;;;9.30;7.30;;;13.00;99.90;;;;;;5030921;28;20437;-84
2022/05/14 01:57:06;;;;;;;10.30;7.20;;;13.00;99.90;;;;;;5040291;28;20434;-84
2022/05/14 01:59:32;;;;;;;11.80;7.13;;;12.90;99.90;;;;;;5036970;28;20473;-84
2022/05/14 02:02:05;;;;;;;7.90;7.10;;;12.90;99.90;;;;;;5033450;28;20447;-84
2022/05/14 02:04:32;;;;;;;10.63;6.63;;;12.80;99.90;;;;;;5030275;28;20497;-85
2022/05/14 02:06:59;;;;;;;10.43;7.30;;;12.80;99.90;;;;;;5035890;28;20461;-83
2022/05/14 02:09:26;;;;;;;10.63;7.57;;;12.80;99.90;;;;;;5026235;28;20509;-85
2022/05/14 02:11:52;;;;;;;11.57;8.43;;;12.80;99.90;;;;;;5020263;28;20452;-85
2022/05/14 02:14:19;;;;;;;13.10;8.20;;;12.70;99.90;;;;;;5015996;28;20447;-85
2022/05/14 02:16:46;;;;;;;8.70;7.00;;;12.70;99.90;;;;;;5015160;28;20454;-85
2022/05/14 02:19:14;;;;;;;8.80;7.17;;;12.70;99.90;;;;;;5015108;28;20979;-85
2022/05/14 02:21:40;;;;;;;7.97;6.77;;;12.80;99.90;;;;;;5015248;28;20511;-85
2022/05/14 02:24:07;;;;;;;7.97;7.10;;;12.70;99.90;;;;;;5014757;28;20882;-84
2022/05/14 02:26:34;;;;;;;8.23;6.70;;;12.70;99.90;;;;;;5014046;28;20454;-85
2022/05/14 02:29:01;;;;;;;9.80;7.23;;;12.60;99.90;;;;;;5014663;28;20462;-84
2022/05/14 02:31:28;;;;;;;13.73;7.53;;;12.70;99.90;;;;;;5019401;28;20451;-84
2022/05/14 02:33:56;;;;;;;9.83;6.30;;;12.60;99.90;;;;;;5028094;28;20432;-85
2022/05/14 02:36:24;;;;;;;9.30;6.60;;;12.60;99.90;;;;;;5019995;28;20439;-85
2022/05/14 02:38:51;;;;;;;11.10;8.80;;;12.60;99.90;;;;;;5015711;28;21024;-85
2022/05/14 02:41:18;;;;;;;9.93;6.80;;;12.60;99.90;;;;;;5014273;28;20982;-85
2022/05/14 02:43:46;;;;;;;9.60;7.00;;;12.60;99.90;;;;;;5014751;28;20495;-84
2022/05/14 02:46:13;;;;;;;12.20;7.20;;;12.50;99.90;;;;;;5017050;28;20458;-84
2022/05/14 02:48:39;;;;;;;9.50;7.60;;;12.50;99.90;;;;;;5014252;28;20478;-84
2022/05/14 02:51:07;;;;;;;9.87;6.80;;;12.50;99.90;;;;;;5014296;28;20451;-84
2022/05/14 02:53:35;;;;;;;9.50;7.70;;;12.50;99.90;;;;;;5013857;28;20458;-84
2022/05/14 02:56:02;;;;;;;8.17;7.30;;;12.40;99.90;;;;;;5013760;28;20453;-85
2022/05/14 03:01:14;;;;;;;8.43;6.57;;;12.40;99.90;;;;;;5025981;28;20472;-83
2022/05/14 03:03:42;;;;;;;12.73;8.23;;;12.30;99.90;;;;;;5033077;28;20478;-84
2022/05/14 03:06:09;;;;;;;9.07;7.80;;;12.40;99.90;;;;;;5014148;28;20466;-84
2022/05/14 03:08:38;;;;;;;7.60;6.47;;;12.30;99.90;;;;;;5014026;28;20490;-84
2022/05/14 03:11:05;;;;;;;8.27;7.03;;;12.40;99.90;;;;;;5014247;28;20940;-84
2022/05/14 03:13:32;;;;;;;11.73;7.57;;;12.30;99.90;;;;;;5019793;28;20508;-84
2022/05/14 03:15:59;;;;;;;12.50;7.77;;;12.30;99.90;;;;;;5024809;28;20484;-84
2022/05/14 03:18:26;;;;;;;11.17;7.03;;;12.30;99.90;;;;;;5013346;28;21040;-84
2022/05/14 03:20:54;;;;;;;11.00;7.50;;;12.30;99.90;;;;;;5013210;28;20484;-84
2022/05/14 03:23:21;;;;;;;9.73;6.50;;;12.30;99.90;;;;;;5013416;28;20482;-84
2022/05/14 03:25:50;;;;;;;7.87;7.17;;;12.30;99.90;;;;;;4994600;28;20862;-85
2022/05/14 03:28:17;;;;;;;9.10;6.90;;;12.30;99.90;;;;;;5008485;28;20490;-84
2022/05/14 03:30:44;;;;;;;7.93;6.87;;;12.30;99.90;;;;;;5031726;28;20472;-84
2022/05/14 03:33:12;;;;;;;7.37;6.57;;;12.20;99.90;;;;;;5014695;28;20450;-84
2022/05/14 03:35:40;;;;;;;11.63;6.97;;;12.20;99.90;;;;;;5013974;28;20466;-84
2022/05/14 03:38:07;;;;;;;7.50;6.57;;;12.20;99.90;;;;;;5013975;28;20479;-84
2022/05/14 03:40:35;;;;;;;7.47;6.77;;;12.20;99.90;;;;;;5013717;28;21013;-83
2022/05/14 03:43:03;;;;;;;7.33;6.70;;;12.20;99.90;;;;;;5013770;28;20450;-84
2022/05/14 03:45:30;;;;;;;8.00;7.17;;;12.10;99.90;;;;;;5013198;28;20545;-84
2022/05/14 03:47:58;;;;;;;8.40;6.50;;;12.10;99.90;;;;;;5013144;28;20994;-84
2022/05/14 03:50:25;;;;;;;8.40;6.73;;;12.10;99.90;;;;;;5013613;28;20458;-84
2022/05/14 03:52:52;;;;;;;10.13;6.57;;;12.10;99.90;;;;;;5034028;28;20461;-84
2022/05/14 03:55:19;;;;;;;9.70;6.67;;;12.10;99.90;;;;;;5031465;28;20442;-84
2022/05/14 03:57:46;;;;;;;7.83;6.80;;;12.10;99.90;;;;;;5015193;28;20988;-84
2022/05/14 04:00:15;;;;;;;8.80;6.60;;;12.10;99.90;;;;;;5013611;28;20449;-84
2022/05/14 04:02:43;;;;;;;9.40;6.30;;;12.10;99.90;;;;;;5014025;28;20618;-84
2022/05/14 04:05:11;;;;;;;7.97;6.77;;;12.00;99.90;;;;;;5013176;28;20517;-84
2022/05/14 04:07:38;;;;;;;9.40;6.57;;;12.00;99.90;;;;;;5013213;28;20478;-84
2022/05/14 04:10:06;;;;;;;9.40;7.50;;;12.00;99.90;;;;;;5013083;28;20445;-84
2022/05/14 04:12:34;;;;;;;6.87;5.93;;;11.90;99.90;;;;;;5012348;28;20446;-85
2022/05/14 04:15:01;;;;;;;9.60;7.17;;;12.00;99.90;;;;;;5022548;28;20438;-84
2022/05/14 04:17:30;;;;;;;6.60;6.00;;;11.90;99.90;;;;;;5033716;28;20475;-85
2022/05/14 04:19:57;;;;;;;8.07;6.80;;;12.00;99.90;;;;;;5028368;28;20479;-84
2022/05/14 04:22:24;;;;;;;8.23;6.80;;;12.00;99.90;;;;;;5017929;28;20454;-84
2022/05/14 04:24:54;;;;;;;9.63;6.50;;;12.00;99.90;;;;;;5012353;28;20482;-85
2022/05/14 04:27:21;;;;;;;7.20;6.50;;;12.00;99.90;;;;;;5012705;28;20959;-84
2022/05/14 04:29:48;;;;;;;8.97;6.30;;;12.00;99.90;;;;;;5013156;28;20457;-84
2022/05/14 04:32:17;;;;;;;6.80;6.10;;;12.00;99.90;;;;;;5013126;28;20458;-84
2022/05/14 04:34:46;;;;;;;13.30;6.10;;;12.00;99.90;;;;;;5023987;28;20460;-83
2022/05/14 04:37:13;;;;;;;5.93;5.43;;;12.10;99.90;;;;;;5037147;28;20431;-84
2022/05/14 04:39:41;;;;;;;7.17;6.47;;;12.20;99.90;;;;;;5030236;28;20490;-84
2022/05/14 04:42:10;;;;;;;7.17;6.47;;;12.20;99.90;;;;;;5020373;28;20459;-84
2022/05/14 04:44:39;;;;;;;10.63;6.50;;;12.20;99.90;;;;;;5024363;28;20477;-85
2022/05/14 04:47:07;;;;;;;7.73;6.37;;;12.20;99.90;;;;;;5019590;28;20508;-85
2022/05/14 04:49:39;;;;;;;7.03;6.40;;;12.30;99.90;;;;;;5033362;28;20450;-83
2022/05/14 04:52:09;;;;;;;7.60;6.00;;;12.30;99.90;;;;;;5037706;28;20441;-84
2022/05/14 04:54:38;;;;;;;12.33;6.70;;;12.30;99.90;;;;;;5037646;28;20441;-83
2022/05/14 04:57:06;;;;;;;8.87;6.53;;;12.30;99.90;;;;;;5037314;28;20437;-83
2022/05/14 04:59:35;;;;;;;7.90;5.83;;;12.30;99.90;;;;;;5035470;28;20434;-83
2022/05/14 05:04:48;;;;;;;8.20;5.90;;;12.80;99.90;;;;;;5032526;28;20497;-83
2022/05/14 05:07:18;;;;;;;10.27;7.30;;;13.40;99.90;;;;;;5031633;28;20449;-84
2022/05/14 05:09:46;;;;;;;8.50;5.50;;;14.00;99.90;;;;;;5019557;28;20500;-84
2022/05/14 05:12:14;;;;;;;8.50;5.83;;;14.50;99.90;;;;;;5014861;28;20477;-84
2022/05/14 05:14:42;;;;;;;7.03;6.00;;;15.10;99.90;;;;;;5017116;28;20516;-84
2022/05/14 05:17:10;;;;;;;7.87;6.03;;;15.70;99.90;;;;;;5018636;28;20444;-84
2022/05/14 05:19:37;;;;;;;8.07;5.70;;;16.10;99.90;;;;;;5018004;28;20452;-84
2022/05/14 05:22:06;;;;;;;6.20;5.37;;;16.50;99.90;;;;;;5024574;28;20433;-84
2022/05/14 05:24:35;;;;;;;8.67;6.03;;;16.90;99.80;;;;;;5028741;28;21148;-84
2022/05/14 05:27:02;;;;;;;6.00;4.73;;;17.20;98.50;;;;;;5017563;28;20465;-84
2022/05/14 05:29:33;;;;;;;6.23;5.63;;;17.50;97.40;;;;;;5018149;28;20474;-84
2022/05/14 05:32:03;;;;;;;6.20;5.60;;;17.80;96.60;;;;;;5017411;28;20703;-85
2022/05/14 05:34:31;;;;;;;6.23;5.50;;;18.30;95.40;;;;;;5016114;28;20451;-84
2022/05/14 05:36:58;;;;;;;7.60;4.70;;;18.60;94.00;;;;;;5015664;28;20448;-84
2022/05/14 05:39:25;;;;;;;6.20;5.40;;;18.90;93.00;;;;;;5016246;28;20528;-84
2022/05/14 05:41:58;;;;;;;6.40;5.03;;;19.20;92.40;;;;;;5016291;28;20456;-85
2022/05/14 05:44:29;;;;;;;8.47;5.03;;;19.50;91.70;;;;;;5033408;28;20538;-84
2022/05/14 05:47:00;;;;;;;6.03;5.37;;;19.60;90.90;;;;;;5030478;28;20477;-84
2022/05/14 05:49:29;;;;;;;4.73;4.00;;;19.90;90.50;;;;;;5017267;28;20548;-84
2022/05/14 05:51:56;;;;;;;6.03;4.60;;;20.10;89.90;;;;;;5038732;28;20462;-84
2022/05/14 05:57:13;;;;;;;7.17;4.60;;;20.30;85.90;;;;;;5030109;28;20520;-84
2022/05/14 05:59:41;;;;;;;6.00;5.20;;;20.60;86.60;;;;;;5017003;28;20463;-85
2022/05/14 06:02:09;;;;;;;7.63;4.80;;;20.70;85.30;;;;;;5015193;28;20507;-86
2022/05/14 06:04:36;;;;;;;6.80;5.33;;;21.00;84.90;;;;;;5015878;28;20575;-87
2022/05/14 06:07:04;;;;;;;6.80;4.80;;;21.40;82.20;;;;;;5016331;28;20457;-86
2022/05/14 06:09:32;;;;;;;6.97;4.60;;;21.70;81.00;;;;;;5015472;28;20553;-86
2022/05/14 06:11:59;;;;;;;5.00;4.40;;;21.90;79.10;;;;;;5015871;28;20459;-86
2022/05/14 06:14:27;;;;;;;6.23;4.57;;;21.50;79.50;;;;;;5015354;28;20849;-86
2022/05/14 06:16:54;;;;;;;13.70;4.80;;;21.90;79.90;;;;;;5015555;28;20969;-86
2022/05/14 06:19:21;;;;;;;6.30;4.50;;;22.50;78.40;;;;;;5015103;28;20477;-86
2022/05/14 06:21:48;;;;;;;8.13;4.90;;;22.60;76.40;;;;;;5015480;28;20442;-86
2022/05/14 06:24:14;;;;;;;8.93;4.93;;;22.80;75.90;;;;;;5014643;28;20500;-87
2022/05/14 06:26:41;;;;;;;5.90;5.00;;;23.40;74.10;;;;;;5018038;28;20446;-86
2022/05/14 06:29:09;;;;;;;6.13;4.43;;;23.40;72.30;;;;;;5021276;28;20465;-86
2022/05/14 06:31:37;;;;;;;6.70;4.53;;;23.50;72.70;;;;;;5015161;28;20888;-86
2022/05/14 06:34:04;;;;;;;6.00;4.47;;;23.20;70.30;;;;;;5000453;28;20501;-86
2022/05/14 06:36:31;;;;;;;5.97;3.90;;;22.90;72.10;;;;;;5002287;28;20453;-86
2022/05/14 06:38:57;;;;;;;6.70;4.53;;;23.10;71.70;;;;;;5016554;28;20489;-86
2022/05/14 06:41:24;;;;;;;5.60;4.33;;;23.30;71.10;;;;;;5017555;28;21028;-86
2022/05/14 06:43:52;;;;;;;5.23;4.20;;;23.60;70.10;;;;;;5019067;28;20472;-86
2022/05/14 06:46:18;;;;;;;5.77;3.67;;;23.90;69.70;;;;;;5037750;28;20481;-87
2022/05/14 06:48:47;;;;;;;5.50;3.90;;;24.10;68.60;;;;;;5027616;28;20472;-86
2022/05/14 06:51:18;;;;;;;5.43;4.03;;;24.40;67.10;;;;;;5015493;28;20454;-86
2022/05/14 06:53:45;;;;;;;8.90;4.53;;;24.80;66.80;;;;;;5014597;28;20442;-86
2022/05/14 06:56:14;;;;;;;5.73;4.30;;;25.40;65.00;;;;;;5033864;28;20443;-86
2022/05/14 06:58:44;;;;;;;4.83;4.33;;;26.10;64.00;;;;;;5024473;28;20465;-86
2022/05/14 07:01:11;;;;;;;6.33;4.20;;;26.30;60.00;;;;;;5014841;28;20537;-86
2022/05/14 07:06:41;;;;;;;6.10;4.90;;;26.60;59.70;;;;;;5011400;28;20492;-86
2022/05/14 08:28:48;;;;;;;4.13;1.70;;;33.70;38.10;;;;;;6161969;23;20429;-85
2022/05/14 08:31:15;;;;;;;3.27;2.00;;;34.60;37.70;;;;;;6164138;23;20405;-86
2022/05/14 08:33:43;;;;;;;5.70;2.00;;;35.60;36.50;;;;;;6164209;23;20888;-86
2022/05/14 08:36:11;;;;;;;3.87;2.97;;;36.30;35.90;;;;;;6161994;23;20449;-86
2022/05/14 08:38:41;;;;;;;4.63;1.80;;;36.30;35.10;;;;;;6166405;23;20454;-86
2022/05/14 08:41:10;;;;;;;4.27;2.00;;;36.60;34.70;;;;;;6167795;23;20406;-86
2022/05/14 08:43:44;;;;;;;4.03;1.60;;;36.80;34.00;;;;;;6165917;23;20792;-87
2022/05/14 08:46:17;;;;;;;5.17;2.13;;;37.20;33.40;;;;;;6169069;23;20470;-86
2022/05/14 08:48:48;;;;;;;3.60;2.57;;;37.20;34.00;;;;;;6182131;23;20422;-86
2022/05/14 08:51:21;;;;;;;3.63;2.50;;;37.00;33.90;;;;;;6172391;23;20757;-86
2022/05/14 08:53:50;;;;;;;5.33;2.30;;;37.40;34.20;;;;;;6157357;23;20395;-86
2022/05/14 08:56:41;;;;;;;3.67;2.23;;;38.00;33.60;;;;;;6177852;23;20453;-87
2022/05/14 08:59:46;;;;;;;3.17;1.83;;;35.90;33.50;;;;;;6183824;23;20458;-88
2022/05/14 09:02:22;;;;;;;2.80;1.73;;;35.70;34.20;;;;;;6179636;23;20395;-85
2022/05/14 09:04:55;;;;;;;3.90;2.00;;;35.30;34.80;;;;;;6163989;23;20379;-86
2022/05/14 09:07:23;;;;;;;3.97;1.93;;;34.60;35.40;;;;;;6158000;23;20392;-86
2022/05/14 09:29:24;;;;;;;4.80;2.03;;;34.50;35.70;;;;;;6084939;23;20450;-84
2022/05/14 09:32:56;;;;;;;;;;;;;;;;;;;;;
2022/05/14 09:36:00;;;;;;;3.17;1.60;;;36.00;35.50;;;;;;6150134;23;20993;-86
2022/05/14 09:46:16;;;;;;;;;;;;;;;;;;;;;
2022/05/14 09:59:08;;;;;;;3.30;2.00;;;40.80;29.90;;;;;;5948583;23;20443;-87
2022/05/14 10:05:43;;;;;;;2.80;1.93;;;41.10;30.30;;;;;;5992010;23;20460;-87
2022/05/14 10:08:25;;;;;;;4.30;2.53;;;41.30;29.50;;;;;;5950912;24;20654;-87
2022/05/14 10:11:07;;;;;;;2.63;1.70;;;41.50;29.50;;;;;;6131511;23;20934;-87
2022/05/14 10:17:05;;;;;;;;;;;;;;;;;;;;;
2022/05/14 10:20:05;;;;;;;3.23;1.97;;;40.50;29.70;;;;;;6109693;23;20428;-87
2022/05/14 10:29:44;;;;;;;;;;;;;;;;;;;;;
2022/05/14 10:32:40;;;;;;;5.60;1.77;;;40.00;28.60;;;;;;6155499;23;20438;-86
2022/05/14 10:35:23;;;;;;;;;;;;;;;;;;;;;
2022/05/14 10:38:14;;;;;;;4.47;2.03;;;38.80;30.40;;;;;;6158642;23;20459;-89
2022/05/14 10:41:37;;;;;;;2.73;1.43;;;39.70;30.00;;;;;;6167841;23;20433;-86
2022/05/14 10:44:41;;;;;;;3.87;1.73;;;39.50;29.10;;;;;;6051432;23;20516;-87
2022/05/14 10:47:40;;;;;;;4.40;1.67;;;39.90;29.00;;;;;;6095128;23;20502;-87
2022/05/14 11:03:43;;;;;;;4.20;1.50;;;41.10;27.80;;;;;;5803674;24;20410;-87
2022/05/14 12:34:09;;;;;;;4.03;2.27;;;41.20;26.20;;;;;;6159109;23;20418;-87
2022/05/14 12:36:42;;;;;;;4.43;1.73;;;41.10;25.80;;;;;;6173158;23;20486;-87
2022/05/14 12:39:18;;;;;;;1.93;1.40;;;39.40;26.90;;;;;;6170235;23;20418;-87
2022/05/14 12:42:11;;;;;;;2.53;1.30;;;39.20;26.80;;;;;;6156837;23;20386;-88
2022/05/14 12:44:51;;;;;;;5.30;1.93;;;39.50;26.80;;;;;;6037220;23;20463;-87
2022/05/14 12:47:27;;;;;;;2.57;1.30;;;39.30;27.00;;;;;;6149644;23;20740;-87
2022/05/14 12:50:03;;;;;;;3.37;1.40;;;39.40;27.00;;;;;;6155201;23;20418;-88
2022/05/14 12:53:00;;;;;;;3.67;1.53;;;39.20;26.90;;;;;;6156083;23;20924;-87
2022/05/14 12:55:45;;;;;;;;;;;;;;;;;;;;;
2022/05/14 12:58:25;;;;;;;;;;;;;;;;;;;;;
2022/05/14 13:01:06;;;;;;;;;;;;;;;;;;;;;
2022/05/14 13:03:39;;;;;;;2.10;1.50;;;38.80;26.40;;;;;;6177802;23;20410;-88
2022/05/14 13:06:11;;;;;;;2.87;1.20;;;38.80;26.80;;;;;;6175975;23;20399;-87
2022/05/14 13:08:44;;;;;;;3.07;1.60;;;37.30;27.30;;;;;;6165143;23;20434;-87
2022/05/14 13:11:18;;;;;;;3.00;2.03;;;36.90;28.40;;;;;;6167819;23;20465;-88
2022/05/14 13:13:48;;;;;;;2.37;1.60;;;36.70;28.20;;;;;;6182528;23;20374;-88
2022/05/14 13:16:18;;;;;;;5.47;1.70;;;37.60;28.30;;;;;;6163476;23;20399;-87
2022/05/14 13:18:50;;;;;;;3.90;2.00;;;37.50;27.70;;;;;;6157668;23;20511;-88
2022/05/14 13:21:21;;;;;;;4.80;1.60;;;38.00;27.50;;;;;;6159492;23;20391;-88
2022/05/14 13:24:01;;;;;;;3.13;1.33;;;37.20;27.90;;;;;;6159660;23;20391;-87
2022/05/14 13:26:34;;;;;;;3.33;1.23;;;37.40;28.00;;;;;;6159557;23;20406;-88
2022/05/14 13:29:12;;;;;;;5.43;1.60;;;38.60;27.80;;;;;;6168190;23;20457;-87
2022/05/14 13:31:44;;;;;;;3.07;1.30;;;39.00;27.10;;;;;;6167373;23;20969;-86
2022/05/14 13:37:08;;;;;;;4.97;1.83;;;39.10;26.90;;;;;;6155906;23;20840;-88
2022/05/14 13:39:39;;;;;;;2.33;1.80;;;37.60;27.40;;;;;;6156102;23;20394;-87
2022/05/14 13:42:11;;;;;;;2.03;1.40;;;38.10;27.40;;;;;;6156494;23;21170;-87
2022/05/14 13:44:42;;;;;;;2.80;1.63;;;38.30;27.20;;;;;;6156685;23;20774;-87
2022/05/14 13:47:11;;;;;;;2.07;1.47;;;38.90;27.10;;;;;;6156868;23;20394;-88
2022/05/14 13:49:41;;;;;;;3.10;1.60;;;39.50;26.90;;;;;;6156020;23;20438;-87
2022/05/14 13:52:11;;;;;;;3.23;1.80;;;37.20;26.80;;;;;;6156157;23;20391;-87
2022/05/14 13:54:43;;;;;;;4.60;1.90;;;36.00;28.70;;;;;;6156126;23;20439;-87
2022/05/14 13:57:25;;;;;;;2.70;2.10;;;36.60;29.30;;;;;;6155330;23;20434;-87
2022/05/14 14:00:05;;;;;;;2.43;1.67;;;37.30;28.20;;;;;;6156715;23;20402;-87
2022/05/14 14:02:32;;;;;;;3.83;1.50;;;38.20;27.50;;;;;;6156118;23;20449;-87
2022/05/14 14:05:01;;;;;;;2.17;1.30;;;38.30;26.80;;;;;;6155441;23;20395;-87
2022/05/14 14:07:33;;;;;;;3.07;2.00;;;38.40;27.00;;;;;;6176298;23;20434;-87
2022/05/14 14:10:09;;;;;;;1.70;1.43;;;38.90;26.70;;;;;;6179527;23;20425;-87
2022/05/14 14:12:36;;;;;;;7.93;1.90;;;38.70;27.30;;;;;;6164265;23;20395;-87
2022/05/14 14:15:03;;;;;;;4.87;1.60;;;38.60;27.00;;;;;;6158992;23;20463;-87
2022/05/14 14:17:29;;;;;;;2.20;1.40;;;38.80;26.80;;;;;;6157933;23;20427;-87
2022/05/14 14:19:57;;;;;;;3.30;2.03;;;38.40;26.80;;;;;;6156635;23;20407;-87
2022/05/14 14:22:24;;;;;;;2.80;1.10;;;38.30;26.60;;;;;;6177695;23;20367;-87
2022/05/14 14:24:54;;;;;;;3.13;1.80;;;37.00;26.50;;;;;;6172979;23;20453;-87
2022/05/14 14:27:23;;;;;;;3.77;2.03;;;36.10;27.60;;;;;;6160278;23;20422;-86
2022/05/14 14:29:57;;;;;;;2.70;1.80;;;35.30;28.20;;;;;;6179300;23;20433;-87
2022/05/14 14:32:24;;;;;;;2.70;1.50;;;35.00;28.50;;;;;;6172716;23;20391;-86
2022/05/14 14:34:51;;;;;;;5.27;2.07;;;35.30;29.00;;;;;;6158608;23;20796;-87
2022/05/14 14:37:18;;;;;;;2.67;1.90;;;35.70;29.00;;;;;;6156900;23;20785;-87
2022/05/14 14:39:50;;;;;;;3.30;1.67;;;35.40;28.60;;;;;;6155576;23;20437;-87
2022/05/14 14:42:21;;;;;;;2.40;1.60;;;34.30;29.40;;;;;;6155388;23;20801;-87
2022/05/14 14:44:51;;;;;;;3.30;1.60;;;33.00;30.00;;;;;;6155455;23;20862;-88
2022/05/14 14:47:27;;;;;;;3.67;1.43;;;32.30;31.40;;;;;;6154899;23;20391;-87
2022/05/14 14:49:54;;;;;;;2.67;1.70;;;31.30;32.40;;;;;;6156062;23;20463;-87
2022/05/14 14:52:21;;;;;;;2.90;1.53;;;30.30;33.30;;;;;;6157903;23;20398;-85
2022/05/14 14:54:47;;;;;;;4.50;1.47;;;29.70;34.90;;;;;;6167414;23;20402;-88
2022/05/14 14:57:14;;;;;;;3.33;1.87;;;29.30;35.80;;;;;;6155153;23;20422;-88
2022/05/14 14:59:42;;;;;;;2.47;1.50;;;29.00;35.90;;;;;;6155937;23;20850;-87
2022/05/14 15:02:15;;;;;;;3.20;2.20;;;28.90;36.20;;;;;;6156005;23;20478;-87
2022/05/14 15:04:47;;;;;;;4.10;2.90;;;28.60;36.30;;;;;;6156367;23;20405;-85
2022/05/14 15:07:13;;;;;;;4.43;3.17;;;28.40;36.50;;;;;;6155759;23;20402;-87
2022/05/14 15:09:41;;;;;;;3.30;2.87;;;28.20;36.50;;;;;;6155081;23;20438;-87
2022/05/14 15:12:10;;;;;;;3.97;1.50;;;28.10;36.90;;;;;;6154680;23;20441;-87
2022/05/14 15:14:38;;;;;;;3.63;2.50;;;27.90;37.00;;;;;;6154668;23;20629;-87
2022/05/14 15:17:07;;;;;;;3.67;2.90;;;27.80;37.20;;;;;;6154561;23;20728;-88
2022/05/14 15:19:33;;;;;;;3.47;1.90;;;27.70;37.10;;;;;;6154606;23;20901;-87
2022/05/14 15:22:00;;;;;;;3.17;1.87;;;27.60;37.60;;;;;;6155310;23;20414;-88
2022/05/14 15:24:27;;;;;;;3.13;1.67;;;27.50;37.50;;;;;;6155731;23;20433;-87
2022/05/14 15:26:56;;;;;;;2.43;1.40;;;27.40;37.40;;;;;;6154555;23;20424;-85
2022/05/14 15:29:24;;;;;;;3.53;1.80;;;27.40;37.50;;;;;;6154621;23;20454;-85
2022/05/14 15:32:14;;;;;;;3.10;1.60;;;27.30;37.00;;;;;;6155287;23;20778;-85
2022/05/14 15:34:41;;;;;;;2.60;1.43;;;27.20;37.10;;;;;;6154913;23;20390;-86
2022/05/14 15:37:09;;;;;;;6.03;1.70;;;27.20;37.20;;;;;;6156657;23;20421;-86
2022/05/14 15:39:38;;;;;;;3.90;2.00;;;27.20;37.30;;;;;;6178740;23;20399;-85
2022/05/14 15:42:09;;;;;;;4.23;1.87;;;27.10;37.50;;;;;;6176978;23;20900;-85
2022/05/14 15:44:40;;;;;;;7.13;2.27;;;27.10;37.50;;;;;;6158645;23;20413;-85
2022/05/14 15:47:14;;;;;;;2.40;1.73;;;27.00;37.50;;;;;;6161294;23;20401;-85
2022/05/14 15:49:47;;;;;;;3.33;1.87;;;26.90;37.30;;;;;;6157884;23;20457;-86
2022/05/14 15:52:14;;;;;;;3.03;1.67;;;26.70;36.80;;;;;;6172117;23;20898;-86
2022/05/14 15:54:41;;;;;;;2.73;1.83;;;26.60;36.80;;;;;;6157134;23;20416;-86
2022/05/14 15:57:09;;;;;;;4.00;2.07;;;26.40;36.90;;;;;;6167492;23;20403;-86
2022/05/14 15:59:36;;;;;;;3.87;2.07;;;26.30;37.50;;;;;;6182271;23;20401;-86
2022/05/14 16:02:06;;;;;;;2.70;1.73;;;26.30;36.70;;;;;;6181716;23;20426;-85
2022/05/14 16:04:34;;;;;;;2.63;1.40;;;26.00;36.80;;;;;;6164312;23;20394;-86
2022/05/14 16:07:05;;;;;;;3.23;1.90;;;25.90;37.70;;;;;;6166036;23;20410;-87
2022/05/14 16:09:32;;;;;;;3.30;2.07;;;25.80;38.10;;;;;;6158879;23;20435;-87
2022/05/14 16:17:28;;;;;;;6.30;2.23;;;25.90;38.80;;;;;;6159260;23;20419;-87
2022/05/14 16:19:55;;;;;;;2.63;1.60;;;25.90;38.80;;;;;;6179240;23;20418;-87
2022/05/14 16:22:23;;;;;;;2.70;2.13;;;25.90;39.00;;;;;;6176788;23;20411;-86
2022/05/14 16:24:50;;;;;;;2.60;1.90;;;25.70;39.20;;;;;;6178112;23;20406;-87
2022/05/14 16:27:17;;;;;;;6.40;2.90;;;25.60;39.30;;;;;;6177665;23;20417;-86
2022/05/14 16:32:28;;;;;;;3.27;1.77;;;25.60;39.80;;;;;;6159932;23;20378;-86
2022/05/14 16:34:56;;;;;;;2.60;1.60;;;25.50;40.00;;;;;;6158946;23;20418;-86
2022/05/14 16:37:24;;;;;;;3.40;1.80;;;25.60;40.10;;;;;;6160512;23;20739;-86
2022/05/14 16:39:50;;;;;;;3.37;1.37;;;25.50;40.50;;;;;;6162570;23;20853;-86
2022/05/14 16:42:17;;;;;;;2.70;1.93;;;25.50;40.30;;;;;;6162100;23;20402;-86
2022/05/14 16:44:44;;;;;;;3.33;2.10;;;25.40;40.80;;;;;;6163768;23;20430;-87
2022/05/14 16:47:11;;;;;;;5.13;1.97;;;25.30;40.80;;;;;;6159581;23;20462;-87
2022/05/14 16:49:38;;;;;;;2.97;1.70;;;25.20;40.90;;;;;;6158635;23;20415;-87
2022/05/14 16:52:06;;;;;;;3.40;2.40;;;25.20;40.80;;;;;;6159887;23;20483;-87
2022/05/14 16:54:34;;;;;;;3.30;1.60;;;25.20;40.60;;;;;;6159530;23;20528;-86
2022/05/14 16:57:01;;;;;;;3.20;2.17;;;25.10;39.90;;;;;;6159509;23;20417;-87
2022/05/14 16:59:27;;;;;;;3.93;1.70;;;25.00;40.00;;;;;;6158857;23;20743;-86
2022/05/14 17:01:55;;;;;;;3.70;2.13;;;24.90;40.60;;;;;;6171446;23;20418;-85
2022/05/14 17:04:21;;;;;;;2.53;1.70;;;24.90;40.80;;;;;;6182401;23;20403;-86
2022/05/14 17:06:48;;;;;;;2.57;1.93;;;24.90;40.70;;;;;;6182172;23;20391;-87
2022/05/14 17:09:15;;;;;;;3.30;2.00;;;24.80;40.50;;;;;;6180372;23;20430;-86
2022/05/14 17:11:43;;;;;;;4.70;3.00;;;24.90;40.40;;;;;;6165895;23;20442;-86
2022/05/14 17:14:10;;;;;;;3.77;2.40;;;24.80;40.30;;;;;;6162623;23;20409;-86
2022/05/14 17:16:36;;;;;;;2.20;1.70;;;24.80;40.70;;;;;;6161041;23;20415;-86
2022/05/14 17:19:04;;;;;;;3.93;1.90;;;24.80;40.20;;;;;;6163849;23;20434;-86
2022/05/14 17:21:30;;;;;;;3.33;2.00;;;24.70;40.20;;;;;;6168309;23;20407;-86
2022/05/14 17:23:57;;;;;;;3.90;1.77;;;24.60;40.40;;;;;;6175606;23;20406;-87
2022/05/14 17:26:24;;;;;;;6.20;2.67;;;24.50;40.40;;;;;;6160836;23;20418;-86
2022/05/14 17:28:52;;;;;;;3.60;2.27;;;24.40;40.50;;;;;;6162844;23;20427;-86
2022/05/14 17:31:19;;;;;;;3.40;1.90;;;24.40;40.30;;;;;;6166126;23;20439;-86
2022/05/14 17:33:46;;;;;;;5.83;2.30;;;24.40;40.40;;;;;;6179527;23;20419;-88
2022/05/14 17:36:13;;;;;;;3.47;2.57;;;24.40;40.00;;;;;;6169041;23;20446;-87
2022/05/14 17:41:24;;;;;;;4.87;2.20;;;24.30;40.00;;;;;;6162082;23;20374;-87
2022/05/14 17:43:52;;;;;;;4.10;2.30;;;24.10;40.20;;;;;;6161120;23;20411;-87
2022/05/14 17:46:19;;;;;;;4.90;2.40;;;24.00;39.90;;;;;;6161431;23;20407;-87
2022/05/14 17:48:46;;;;;;;2.33;1.73;;;23.90;40.20;;;;;;6163578;23;20431;-87
2022/05/14 17:51:13;;;;;;;4.60;2.53;;;23.90;40.50;;;;;;6160355;23;20452;-86
2022/05/14 17:53:41;;;;;;;4.00;1.60;;;23.90;40.00;;;;;;6160150;23;20762;-87
2022/05/14 17:56:08;;;;;;;2.20;1.77;;;23.80;39.90;;;;;;6160146;23;20604;-87
2022/05/14 17:58:35;;;;;;;2.70;1.57;;;23.70;39.80;;;;;;6160281;23;20456;-87
2022/05/14 18:01:04;;;;;;;4.60;2.27;;;23.70;40.10;;;;;;6160086;23;20406;-87
2022/05/14 18:03:31;;;;;;;4.80;1.80;;;23.60;40.10;;;;;;6159900;23;20411;-87
2022/05/14 18:05:59;;;;;;;4.57;2.97;;;23.60;40.50;;;;;;6158784;23;21103;-87
2022/05/14 18:08:27;;;;;;;3.60;3.20;;;23.60;40.70;;;;;;6156952;23;20425;-87
2022/05/14 18:13:38;;;;;;;5.20;4.40;;;23.50;41.40;;;;;;6159251;23;20385;-87
2022/05/14 18:16:06;;;;;;;5.17;3.53;;;23.40;41.50;;;;;;6172293;23;20391;-87
2022/05/14 18:18:33;;;;;;;4.50;3.37;;;23.30;41.60;;;;;;6178748;23;20454;-87
2022/05/14 18:21:00;;;;;;;3.97;3.17;;;23.30;41.80;;;;;;6182423;23;20411;-87
2022/05/14 18:23:27;;;;;;;4.23;2.43;;;23.10;41.80;;;;;;6178123;23;20405;-88
2022/05/14 18:25:56;;;;;;;3.77;3.00;;;23.10;41.70;;;;;;6178669;23;20391;-87
2022/05/14 18:28:28;;;;;;;3.17;2.47;;;23.10;41.80;;;;;;6167710;23;20460;-87
2022/05/14 18:31:15;;;;;;;4.17;2.77;;;23.00;41.80;;;;;;6170940;23;20511;-87
2022/05/14 18:33:53;;;;;;;3.80;2.73;;;22.90;41.70;;;;;;6171558;23;20486;-87
2022/05/14 18:36:21;;;;;;;4.47;3.87;;;22.90;42.10;;;;;;6168288;23;20550;-87
2022/05/14 18:38:53;;;;;;;6.90;4.83;;;22.70;42.60;;;;;;6162554;23;20448;-87
2022/05/14 18:41:24;;;;;;;5.53;4.20;;;22.70;42.80;;;;;;6160262;23;20394;-87
2022/05/14 18:43:52;;;;;;;5.93;4.43;;;22.60;42.90;;;;;;6159648;23;20737;-86
2022/05/14 18:46:18;;;;;;;6.87;5.60;;;22.60;43.10;;;;;;6157757;23;20410;-87
2022/05/14 18:48:47;;;;;;;4.73;4.10;;;22.50;43.40;;;;;;6158996;23;20426;-87